Time;durP1;ratioP1;P1;durP2;ratioP2;P2;SDS_P1;SDS_P2;PMS_P1;PMS_P2;Temp;Humidity;BMP_temperature;BMP_pressure;BME280_temperature;BME280_humidity;BME280_pressure;Samples;Min_cycle;Max_cycle;Signal;HPM_P1;HPM_P2
2022/03/13 00:00:35;;;;;;;5.67;3.90;;;4.00;33.70;;;;;;5015441;28;20166;-64
2022/03/13 00:03:06;;;;;;;11.53;4.33;;;4.00;33.70;;;;;;5015160;28;20183;-63
2022/03/13 00:05:36;;;;;;;7.87;4.37;;;4.00;34.00;;;;;;5015120;28;20183;-63
2022/03/13 00:08:04;;;;;;;6.20;4.03;;;3.90;34.00;;;;;;5015220;28;20561;-64
2022/03/13 00:10:30;;;;;;;13.30;3.53;;;3.90;34.10;;;;;;5015010;28;20197;-63
2022/03/13 00:12:56;;;;;;;5.20;3.80;;;3.90;34.20;;;;;;4997480;28;20177;-63
2022/03/13 00:15:31;;;;;;;7.00;4.00;;;3.90;34.30;;;;;;5015011;28;20164;-63
2022/03/13 00:17:58;;;;;;;9.47;4.13;;;3.90;34.40;;;;;;5015088;28;20166;-63
2022/03/13 00:20:25;;;;;;;7.33;3.87;;;3.80;34.30;;;;;;5014907;28;20532;-64
2022/03/13 00:22:53;;;;;;;7.40;3.97;;;3.80;34.50;;;;;;5014788;28;20249;-64
2022/03/13 00:25:20;;;;;;;5.43;3.60;;;3.80;34.80;;;;;;5015588;28;20175;-63
2022/03/13 00:27:46;;;;;;;5.70;3.43;;;3.70;34.50;;;;;;4993613;28;20230;-63
2022/03/13 00:30:12;;;;;;;6.83;4.20;;;3.70;35.00;;;;;;4995265;28;20154;-65
2022/03/13 00:32:38;;;;;;;7.13;3.80;;;3.70;35.20;;;;;;4995384;28;20490;-63
2022/03/13 00:35:05;;;;;;;7.37;4.13;;;3.70;35.30;;;;;;4994474;28;20180;-62
2022/03/13 00:37:30;;;;;;;5.97;4.03;;;3.60;35.50;;;;;;4995143;28;20657;-63
2022/03/13 00:39:56;;;;;;;6.93;3.77;;;3.60;35.50;;;;;;4995435;28;20166;-64
2022/03/13 00:42:23;;;;;;;6.50;4.33;;;3.60;35.40;;;;;;4994206;28;20228;-64
2022/03/13 00:44:49;;;;;;;6.63;4.13;;;3.60;35.40;;;;;;4995252;28;20170;-64
2022/03/13 00:47:17;;;;;;;5.60;3.77;;;3.60;35.40;;;;;;4995086;28;20170;-63
2022/03/13 00:49:45;;;;;;;7.73;4.03;;;3.60;35.50;;;;;;4994422;28;20228;-63
2022/03/13 00:52:10;;;;;;;6.57;4.03;;;3.50;35.60;;;;;;4993744;28;20682;-63
2022/03/13 00:54:36;;;;;;;4.90;3.60;;;3.50;35.70;;;;;;4994932;28;20166;-64
2022/03/13 00:57:02;;;;;;;5.40;3.47;;;3.50;35.80;;;;;;4993763;28;20186;-62
2022/03/13 00:59:27;;;;;;;5.87;3.53;;;3.50;35.90;;;;;;4994826;28;20305;-65
2022/03/13 01:01:53;;;;;;;5.57;3.60;;;3.50;36.00;;;;;;4994679;28;20198;-64
2022/03/13 01:04:19;;;;;;;6.43;4.07;;;3.50;36.20;;;;;;4994651;28;20177;-64
2022/03/13 01:06:46;;;;;;;7.43;4.00;;;3.50;36.30;;;;;;4993984;28;20297;-63
2022/03/13 01:09:12;;;;;;;6.60;3.80;;;3.50;36.30;;;;;;4994420;28;20174;-63
2022/03/13 01:11:37;;;;;;;6.37;3.83;;;3.40;36.30;;;;;;4994282;28;20225;-63
2022/03/13 01:14:04;;;;;;;5.23;4.00;;;3.40;36.40;;;;;;4994173;28;20163;-63
2022/03/13 01:16:38;;;;;;;7.73;4.10;;;3.40;36.40;;;;;;4996510;28;20194;-64
2022/03/13 01:19:04;;;;;;;6.97;3.87;;;3.40;36.50;;;;;;4999600;28;20168;-63
2022/03/13 01:21:33;;;;;;;7.63;4.10;;;3.40;36.80;;;;;;4998648;28;20209;-63
2022/03/13 01:24:02;;;;;;;6.83;3.83;;;3.30;36.60;;;;;;4997062;28;20280;-63
2022/03/13 01:26:34;;;;;;;7.57;4.00;;;3.40;36.60;;;;;;4995192;28;20177;-63
2022/03/13 01:29:02;;;;;;;6.27;3.90;;;3.30;36.60;;;;;;4994557;28;20210;-63
2022/03/13 01:31:30;;;;;;;8.10;4.03;;;3.40;36.80;;;;;;4994677;28;20598;-63
2022/03/13 01:33:57;;;;;;;7.13;3.67;;;3.40;36.70;;;;;;4993374;28;20167;-64
2022/03/13 01:36:23;;;;;;;7.03;3.63;;;3.30;36.80;;;;;;4994844;28;20186;-65
2022/03/13 01:38:54;;;;;;;8.37;3.93;;;3.30;36.90;;;;;;4995241;28;20174;-63
2022/03/13 01:41:20;;;;;;;4.43;3.43;;;3.30;37.00;;;;;;4994244;28;20658;-62
2022/03/13 01:43:47;;;;;;;6.30;3.80;;;3.30;37.00;;;;;;4994711;28;20574;-64
2022/03/13 01:46:13;;;;;;;6.93;4.13;;;3.30;37.00;;;;;;4996229;28;20163;-64
2022/03/13 01:48:58;;;;;;;6.13;3.93;;;3.30;37.10;;;;;;4995539;28;20167;-64
2022/03/13 01:51:25;;;;;;;7.37;4.13;;;3.30;37.20;;;;;;4997728;28;20170;-65
2022/03/13 01:53:58;;;;;;;6.77;3.70;;;3.20;37.10;;;;;;5004054;28;20173;-63
2022/03/13 01:56:24;;;;;;;7.30;4.10;;;3.20;37.20;;;;;;5006781;28;20169;-62
2022/03/13 01:58:52;;;;;;;8.13;3.87;;;3.20;37.40;;;;;;5007084;28;20182;-63
2022/03/13 02:01:19;;;;;;;8.27;3.80;;;3.20;37.40;;;;;;5003509;28;20190;-63
2022/03/13 02:03:45;;;;;;;7.70;4.00;;;3.20;37.40;;;;;;5001802;28;20162;-64
2022/03/13 02:06:11;;;;;;;8.10;4.13;;;3.20;37.40;;;;;;4998260;28;20186;-64
2022/03/13 02:08:37;;;;;;;6.10;3.83;;;3.20;37.40;;;;;;4997608;28;20160;-63
2022/03/13 02:11:04;;;;;;;6.87;3.63;;;3.20;37.40;;;;;;4998018;28;20160;-62
2022/03/13 02:13:31;;;;;;;8.80;4.40;;;3.10;37.50;;;;;;4997983;28;20614;-63
2022/03/13 02:15:57;;;;;;;5.50;3.70;;;3.20;37.50;;;;;;4997344;28;20618;-63
2022/03/13 02:18:23;;;;;;;5.07;3.57;;;3.20;37.40;;;;;;4997770;28;20166;-65
2022/03/13 02:20:48;;;;;;;5.93;3.73;;;3.10;37.50;;;;;;4997434;28;20256;-64
2022/03/13 02:23:18;;;;;;;7.37;4.67;;;3.10;37.60;;;;;;4997675;28;20507;-64
2022/03/13 02:25:44;;;;;;;6.63;3.90;;;3.10;37.50;;;;;;4997734;28;20206;-63
2022/03/13 02:28:09;;;;;;;6.93;3.97;;;3.20;37.70;;;;;;5010335;28;20261;-63
2022/03/13 02:30:35;;;;;;;5.90;4.10;;;3.10;37.70;;;;;;5017015;28;20169;-63
2022/03/13 02:33:01;;;;;;;5.73;4.03;;;3.10;37.90;;;;;;5017158;28;20172;-63
2022/03/13 02:35:32;;;;;;;6.27;4.07;;;3.00;38.70;;;;;;5017728;28;20204;-65
2022/03/13 02:37:57;;;;;;;6.50;3.90;;;3.00;38.20;;;;;;5016837;28;20594;-64
2022/03/13 02:40:24;;;;;;;6.17;3.73;;;3.00;38.20;;;;;;5017022;28;20281;-64
2022/03/13 02:42:51;;;;;;;6.23;3.77;;;3.00;38.30;;;;;;5017120;28;20240;-63
2022/03/13 02:45:26;;;;;;;6.03;3.33;;;3.00;38.30;;;;;;4999389;28;20566;-62
2022/03/13 02:47:52;;;;;;;5.87;3.73;;;3.00;38.20;;;;;;5016743;28;20485;-64
2022/03/13 02:50:18;;;;;;;5.60;3.87;;;3.00;38.30;;;;;;5018653;28;20232;-62
2022/03/13 02:52:43;;;;;;;6.53;3.80;;;2.90;38.20;;;;;;5017408;28;20176;-63
2022/03/13 02:55:09;;;;;;;6.27;3.73;;;3.00;38.30;;;;;;5016942;28;20166;-64
2022/03/13 02:57:35;;;;;;;7.03;3.87;;;3.00;38.30;;;;;;5016724;28;20602;-63
2022/03/13 03:00:01;;;;;;;5.30;3.70;;;3.00;38.30;;;;;;5016824;28;20162;-62
2022/03/13 03:02:26;;;;;;;6.73;3.70;;;3.00;38.30;;;;;;5016914;28;20255;-63
2022/03/13 03:04:54;;;;;;;6.20;4.10;;;3.00;38.20;;;;;;5016311;28;20166;-65
2022/03/13 03:07:20;;;;;;;8.50;4.23;;;3.00;38.30;;;;;;5016530;28;20223;-63
2022/03/13 03:09:46;;;;;;;6.27;4.17;;;3.00;38.30;;;;;;5016778;28;20181;-63
2022/03/13 03:12:11;;;;;;;7.60;4.00;;;3.00;38.20;;;;;;5016567;28;20170;-63
2022/03/13 03:14:37;;;;;;;6.70;4.40;;;3.00;38.30;;;;;;5016461;28;20166;-63
2022/03/13 03:17:04;;;;;;;6.97;3.93;;;3.00;38.30;;;;;;5016593;28;20162;-64
2022/03/13 03:19:30;;;;;;;6.57;4.03;;;3.00;38.30;;;;;;5016274;28;20174;-64
2022/03/13 03:21:56;;;;;;;11.50;4.03;;;3.00;38.20;;;;;;5016274;28;20674;-63
2022/03/13 03:24:25;;;;;;;7.03;3.80;;;3.00;38.10;;;;;;5016771;28;20221;-63
2022/03/13 03:26:53;;;;;;;8.87;4.10;;;3.00;38.00;;;;;;5016505;28;20173;-63
2022/03/13 03:29:18;;;;;;;6.87;4.17;;;3.00;37.90;;;;;;5016566;28;20503;-63
2022/03/13 03:31:47;;;;;;;8.50;4.80;;;3.00;37.90;;;;;;5016821;28;20170;-63
2022/03/13 03:34:15;;;;;;;6.00;3.57;;;3.00;37.80;;;;;;5016240;28;20165;-63
2022/03/13 03:36:49;;;;;;;5.27;3.77;;;3.10;37.80;;;;;;5015754;28;20158;-63
2022/03/13 03:39:18;;;;;;;5.33;3.90;;;3.00;37.60;;;;;;5016028;28;20161;-62
2022/03/13 03:41:45;;;;;;;7.10;4.47;;;3.00;37.40;;;;;;5017250;28;20505;-64
2022/03/13 03:44:11;;;;;;;6.30;3.83;;;3.10;37.50;;;;;;5020373;28;20180;-63
2022/03/13 03:46:38;;;;;;;8.40;4.03;;;3.10;37.40;;;;;;5017292;28;20574;-64
2022/03/13 03:49:04;;;;;;;6.30;3.93;;;3.20;37.40;;;;;;4997963;28;20179;-64
2022/03/13 03:51:30;;;;;;;6.67;3.63;;;3.20;37.20;;;;;;5015165;28;20173;-63
2022/03/13 03:53:56;;;;;;;5.33;3.70;;;3.10;37.30;;;;;;5015614;28;20598;-64
2022/03/13 03:56:21;;;;;;;6.70;3.87;;;3.10;37.30;;;;;;4998414;28;20186;-63
2022/03/13 03:58:48;;;;;;;6.57;4.00;;;3.10;37.30;;;;;;5015380;28;20273;-63
2022/03/13 04:01:14;;;;;;;6.30;4.23;;;3.10;37.20;;;;;;5015633;28;20287;-63
2022/03/13 04:03:40;;;;;;;7.03;3.90;;;3.20;37.10;;;;;;4997772;28;20265;-63
2022/03/13 04:06:06;;;;;;;7.60;3.83;;;3.10;37.10;;;;;;5014759;28;20611;-63
2022/03/13 04:08:33;;;;;;;7.33;3.70;;;3.20;37.20;;;;;;4998098;28;20245;-63
2022/03/13 04:11:00;;;;;;;5.50;4.07;;;3.10;37.20;;;;;;5014813;28;20225;-64
2022/03/13 04:13:26;;;;;;;6.07;3.90;;;3.10;37.40;;;;;;5015641;28;20176;-63
2022/03/13 04:15:52;;;;;;;10.90;4.20;;;3.00;37.50;;;;;;5014959;28;20177;-64
2022/03/13 04:18:19;;;;;;;7.67;4.07;;;3.10;37.50;;;;;;4998676;28;20205;-65
2022/03/13 04:20:45;;;;;;;8.77;4.83;;;3.10;37.60;;;;;;5015303;28;20625;-64
2022/03/13 04:23:10;;;;;;;6.30;3.90;;;3.10;37.50;;;;;;5015607;28;20216;-63
2022/03/13 04:25:37;;;;;;;7.60;4.03;;;3.10;37.50;;;;;;5017073;28;20215;-62
2022/03/13 04:28:04;;;;;;;6.23;4.23;;;3.10;37.50;;;;;;5020285;28;20229;-63
2022/03/13 04:30:32;;;;;;;6.43;4.17;;;3.10;38.10;;;;;;5023936;28;20162;-64
2022/03/13 04:33:00;;;;;;;8.30;4.53;;;3.00;37.40;;;;;;5024639;28;20170;-64
2022/03/13 04:35:26;;;;;;;5.97;3.93;;;3.00;37.40;;;;;;5024178;28;20199;-64
2022/03/13 04:37:59;;;;;;;5.27;3.77;;;3.00;37.50;;;;;;5097552;27;20589;-62
2022/03/13 04:40:25;;;;;;;5.50;3.83;;;3.10;37.80;;;;;;5095393;28;20175;-63
2022/03/13 04:42:50;;;;;;;5.50;4.40;;;3.00;37.80;;;;;;5092013;28;20159;-63
2022/03/13 04:45:18;;;;;;;6.80;4.40;;;3.00;37.80;;;;;;5090746;28;20567;-63
2022/03/13 04:47:44;;;;;;;7.40;4.07;;;3.00;37.90;;;;;;5090740;28;20227;-63
2022/03/13 04:50:10;;;;;;;7.63;4.30;;;2.90;37.90;;;;;;5090643;28;20268;-62
2022/03/13 04:52:36;;;;;;;6.67;4.10;;;2.90;37.90;;;;;;5090201;28;20163;-63
2022/03/13 04:55:03;;;;;;;8.47;4.60;;;2.90;38.10;;;;;;5090561;28;20166;-63
2022/03/13 04:57:28;;;;;;;7.40;4.13;;;2.90;38.20;;;;;;5090593;28;20251;-64
2022/03/13 04:59:54;;;;;;;5.93;3.90;;;2.90;38.20;;;;;;5090515;28;20242;-62
2022/03/13 05:02:19;;;;;;;10.37;4.17;;;2.80;38.20;;;;;;5090736;28;20167;-65
2022/03/13 05:04:45;;;;;;;7.53;4.10;;;2.80;38.10;;;;;;5090512;28;20159;-63
2022/03/13 05:07:11;;;;;;;6.00;4.60;;;2.80;38.20;;;;;;5090659;28;20317;-63
2022/03/13 05:09:37;;;;;;;5.83;4.17;;;2.80;38.20;;;;;;5090642;28;20191;-62
2022/03/13 05:12:05;;;;;;;9.00;4.53;;;2.80;38.30;;;;;;5090450;28;20191;-63
2022/03/13 05:14:31;;;;;;;6.97;4.20;;;2.80;38.10;;;;;;5090909;28;20168;-63
2022/03/13 05:16:57;;;;;;;6.60;3.83;;;2.80;38.10;;;;;;5088910;28;20203;-63
2022/03/13 05:19:22;;;;;;;6.70;4.37;;;2.80;38.20;;;;;;5090641;28;20576;-65
2022/03/13 05:21:48;;;;;;;7.80;4.10;;;2.80;38.10;;;;;;5090648;28;20159;-63
2022/03/13 05:24:13;;;;;;;7.50;4.13;;;2.80;38.10;;;;;;5090817;28;20208;-65
2022/03/13 05:26:39;;;;;;;6.73;4.43;;;2.80;38.20;;;;;;5089852;28;20167;-63
2022/03/13 05:29:04;;;;;;;7.90;4.23;;;2.80;38.20;;;;;;5090411;28;20265;-64
2022/03/13 05:31:30;;;;;;;8.57;4.50;;;2.80;38.20;;;;;;5088543;28;20182;-64
2022/03/13 05:33:56;;;;;;;6.33;4.03;;;2.80;38.30;;;;;;5091129;28;20185;-64
2022/03/13 05:36:22;;;;;;;6.87;4.10;;;2.80;38.30;;;;;;5092606;28;20284;-63
2022/03/13 05:38:47;;;;;;;6.53;4.17;;;2.80;38.30;;;;;;5099366;28;20622;-64
2022/03/13 05:41:13;;;;;;;6.83;4.13;;;2.80;38.30;;;;;;5096119;28;20209;-64
2022/03/13 05:43:42;;;;;;;8.27;4.23;;;2.80;38.10;;;;;;5093302;28;20213;-63
2022/03/13 05:46:08;;;;;;;6.13;4.03;;;2.90;38.20;;;;;;5093395;28;20171;-63
2022/03/13 05:48:34;;;;;;;10.00;4.53;;;2.90;38.20;;;;;;5080831;28;20568;-63
2022/03/13 05:51:00;;;;;;;8.50;4.70;;;2.90;38.20;;;;;;5076454;28;20178;-63
2022/03/13 05:53:25;;;;;;;6.77;4.90;;;2.90;38.00;;;;;;5076077;28;20168;-64
2022/03/13 05:55:52;;;;;;;7.33;4.20;;;3.00;38.00;;;;;;5076515;28;20571;-64
2022/03/13 05:58:18;;;;;;;6.80;4.40;;;3.00;37.90;;;;;;5076297;28;20163;-63
2022/03/13 06:00:44;;;;;;;6.53;4.20;;;3.00;38.00;;;;;;5074806;28;20175;-64
2022/03/13 06:03:09;;;;;;;9.33;3.97;;;3.00;37.90;;;;;;5076102;28;20175;-63
2022/03/13 06:05:35;;;;;;;11.67;4.33;;;3.00;37.80;;;;;;5074774;28;20611;-63
2022/03/13 06:08:03;;;;;;;5.90;4.20;;;3.10;37.80;;;;;;5075138;28;20210;-63
2022/03/13 06:10:29;;;;;;;7.43;4.13;;;3.00;37.80;;;;;;5075605;28;20548;-63
2022/03/13 06:12:55;;;;;;;8.30;3.87;;;3.20;37.70;;;;;;5075640;28;20448;-64
2022/03/13 06:15:21;;;;;;;7.43;4.73;;;3.10;37.50;;;;;;5075593;28;20167;-63
2022/03/13 06:17:48;;;;;;;8.47;4.23;;;3.10;37.60;;;;;;5073834;28;20192;-63
2022/03/13 06:20:16;;;;;;;6.40;4.03;;;3.20;37.60;;;;;;5076014;28;20175;-63
2022/03/13 06:22:44;;;;;;;10.40;4.20;;;3.20;37.30;;;;;;5075531;28;20214;-64
2022/03/13 06:25:12;;;;;;;6.40;4.17;;;3.20;37.20;;;;;;5074425;28;20173;-65
2022/03/13 06:27:38;;;;;;;6.33;4.27;;;3.30;37.30;;;;;;5075317;28;20167;-65
2022/03/13 06:30:16;;;;;;;6.23;4.00;;;3.30;37.20;;;;;;5075685;28;20168;-64
2022/03/13 06:32:44;;;;;;;5.53;3.73;;;3.30;37.30;;;;;;5075938;28;20168;-65
2022/03/13 06:35:10;;;;;;;6.20;4.20;;;3.30;37.20;;;;;;5075487;28;20159;-65
2022/03/13 06:37:40;;;;;;;5.07;3.97;;;3.30;37.20;;;;;;5075157;28;20593;-64
2022/03/13 06:40:07;;;;;;;8.07;4.23;;;3.40;37.30;;;;;;5075402;28;20167;-62
2022/03/13 06:42:35;;;;;;;6.33;4.10;;;3.40;37.30;;;;;;5075185;28;20152;-63
2022/03/13 06:45:01;;;;;;;8.40;4.63;;;3.50;37.30;;;;;;5075240;28;20259;-64
2022/03/13 06:47:27;;;;;;;6.30;4.27;;;3.50;37.20;;;;;;5074934;28;20266;-64
2022/03/13 06:49:52;;;;;;;7.87;4.60;;;3.60;37.10;;;;;;5075492;28;20282;-63
2022/03/13 06:52:18;;;;;;;6.90;3.60;;;3.70;37.00;;;;;;5075142;28;20168;-64
2022/03/13 06:54:44;;;;;;;6.27;3.60;;;3.70;36.90;;;;;;5075225;28;20627;-63
2022/03/13 06:57:10;;;;;;;6.47;3.97;;;3.80;36.80;;;;;;5074928;28;20223;-65
2022/03/13 06:59:35;;;;;;;8.03;3.60;;;3.90;36.60;;;;;;5074639;28;20172;-64
2022/03/13 07:02:01;;;;;;;8.77;4.33;;;4.00;36.50;;;;;;5074678;28;20214;-63
2022/03/13 07:04:27;;;;;;;7.33;4.50;;;4.10;35.80;;;;;;5075342;28;20214;-63
2022/03/13 07:06:52;;;;;;;5.13;3.40;;;4.20;35.90;;;;;;5075132;28;20246;-63
2022/03/13 07:09:18;;;;;;;6.67;4.10;;;4.20;35.90;;;;;;5075456;28;20217;-63
2022/03/13 07:11:46;;;;;;;7.20;4.50;;;4.30;35.70;;;;;;5076033;28;20343;-63
2022/03/13 07:14:11;;;;;;;6.40;4.00;;;4.40;35.40;;;;;;5077685;28;20190;-63
2022/03/13 07:16:37;;;;;;;6.17;4.13;;;4.40;35.10;;;;;;5079973;28;20195;-63
2022/03/13 07:19:03;;;;;;;8.20;4.27;;;4.60;34.70;;;;;;5080644;28;20305;-64
2022/03/13 07:21:29;;;;;;;6.57;3.67;;;4.70;34.50;;;;;;5079832;28;20204;-64
2022/03/13 07:23:55;;;;;;;6.50;4.50;;;4.70;34.30;;;;;;5078913;28;20171;-65
2022/03/13 07:26:20;;;;;;;6.17;3.70;;;4.80;34.00;;;;;;5076256;28;20620;-63
2022/03/13 07:28:46;;;;;;;6.43;4.20;;;4.90;33.90;;;;;;5074738;28;20167;-64
2022/03/13 07:31:12;;;;;;;7.97;4.40;;;5.00;33.60;;;;;;5074480;28;20177;-64
2022/03/13 07:33:37;;;;;;;3.83;2.80;;;5.00;33.30;;;;;;5074908;28;20318;-63
2022/03/13 07:36:03;;;;;;;7.80;4.30;;;5.10;33.20;;;;;;5073898;28;20207;-65
2022/03/13 07:38:29;;;;;;;5.67;3.37;;;5.20;33.10;;;;;;5074200;28;20589;-64
2022/03/13 07:40:55;;;;;;;4.83;3.73;;;5.20;32.90;;;;;;5074429;28;20158;-63
2022/03/13 07:43:21;;;;;;;9.30;4.27;;;5.40;32.90;;;;;;5073850;28;20569;-63
2022/03/13 07:45:47;;;;;;;10.67;3.67;;;5.50;32.90;;;;;;5074432;28;20176;-63
2022/03/13 07:48:12;;;;;;;5.57;3.63;;;5.60;32.50;;;;;;5074253;28;20171;-63
2022/03/13 07:50:38;;;;;;;4.93;3.43;;;5.70;32.30;;;;;;5073517;28;20175;-63
2022/03/13 07:53:04;;;;;;;7.90;3.70;;;5.70;32.10;;;;;;5054995;28;20198;-64
2022/03/13 07:55:30;;;;;;;6.17;3.73;;;5.80;32.20;;;;;;5054599;28;20583;-64
2022/03/13 07:57:55;;;;;;;9.57;3.83;;;5.90;32.10;;;;;;5050080;28;20216;-63
2022/03/13 08:00:22;;;;;;;8.73;3.50;;;5.90;31.70;;;;;;5054201;28;20335;-64
2022/03/13 08:02:49;;;;;;;4.57;3.47;;;5.90;31.50;;;;;;5070991;28;20271;-62
2022/03/13 08:05:21;;;;;;;11.63;3.77;;;6.10;31.60;;;;;;5062805;28;20250;-63
2022/03/13 08:07:49;;;;;;;7.20;4.20;;;6.10;31.10;;;;;;5078503;28;20180;-63
2022/03/13 08:10:20;;;;;;;5.60;3.40;;;6.30;30.80;;;;;;5061307;28;20251;-64
2022/03/13 08:12:45;;;;;;;5.53;3.60;;;6.30;30.40;;;;;;5059268;28;20184;-63
2022/03/13 08:15:12;;;;;;;5.77;3.70;;;6.30;30.80;;;;;;5059267;28;20175;-64
2022/03/13 08:17:38;;;;;;;5.47;3.43;;;6.40;30.30;;;;;;5058870;28;20188;-65
2022/03/13 08:20:05;;;;;;;6.50;3.90;;;6.60;30.20;;;;;;5075318;28;20203;-64
2022/03/13 08:22:31;;;;;;;5.17;3.33;;;6.70;30.20;;;;;;5073817;28;20178;-64
2022/03/13 08:24:57;;;;;;;5.47;3.67;;;6.70;29.80;;;;;;5058516;28;20160;-64
2022/03/13 08:27:22;;;;;;;5.87;3.40;;;6.80;29.70;;;;;;5056068;28;20257;-64
2022/03/13 08:29:48;;;;;;;4.80;3.53;;;6.80;29.40;;;;;;5054519;28;20184;-63
2022/03/13 08:32:16;;;;;;;6.87;4.00;;;7.00;29.40;;;;;;5057157;28;20227;-64
2022/03/13 08:34:42;;;;;;;5.33;3.13;;;7.00;29.20;;;;;;5059287;28;20188;-65
2022/03/13 08:37:08;;;;;;;8.13;3.70;;;7.20;29.30;;;;;;5058949;28;20239;-63
2022/03/13 08:39:35;;;;;;;7.00;3.63;;;7.20;28.60;;;;;;5055379;28;20487;-63
2022/03/13 08:42:01;;;;;;;4.27;3.17;;;7.40;28.70;;;;;;5069051;28;20215;-63
2022/03/13 08:44:26;;;;;;;6.43;3.43;;;7.40;28.70;;;;;;5053408;28;20180;-64
2022/03/13 08:46:52;;;;;;;5.93;3.40;;;7.40;28.50;;;;;;5053222;28;20165;-65
2022/03/13 08:49:17;;;;;;;5.43;3.67;;;7.40;28.20;;;;;;5053628;28;20171;-65
2022/03/13 08:51:43;;;;;;;6.00;3.90;;;7.60;28.40;;;;;;5053939;28;20195;-65
2022/03/13 08:54:09;;;;;;;6.03;3.47;;;7.80;28.40;;;;;;5069488;28;20178;-64
2022/03/13 08:56:35;;;;;;;4.67;3.27;;;7.90;28.10;;;;;;5053349;28;20263;-64
2022/03/13 08:59:02;;;;;;;6.77;4.10;;;7.90;27.70;;;;;;5052930;28;20581;-65
2022/03/13 09:01:28;;;;;;;6.37;3.87;;;8.10;27.70;;;;;;5053193;28;20582;-65
2022/03/13 09:03:54;;;;;;;6.87;3.93;;;8.30;27.70;;;;;;5052909;28;20180;-64
2022/03/13 09:06:20;;;;;;;5.27;3.67;;;8.20;27.20;;;;;;5053155;28;20596;-64
2022/03/13 09:08:45;;;;;;;5.43;3.20;;;8.10;27.10;;;;;;5052895;28;20178;-62
2022/03/13 09:11:11;;;;;;;5.97;3.80;;;8.40;27.20;;;;;;5053658;28;20198;-62
2022/03/13 09:13:37;;;;;;;5.93;3.90;;;8.40;27.00;;;;;;5053326;28;20160;-63
2022/03/13 09:16:04;;;;;;;5.87;3.87;;;8.50;27.00;;;;;;5053432;28;20346;-63
2022/03/13 09:18:30;;;;;;;6.90;4.10;;;8.70;26.80;;;;;;5053300;28;20237;-67
2022/03/13 09:20:57;;;;;;;7.20;3.93;;;8.80;26.80;;;;;;5053780;28;20156;-63
2022/03/13 09:23:23;;;;;;;6.63;3.83;;;8.80;26.50;;;;;;5054525;28;20294;-64
2022/03/13 09:25:50;;;;;;;5.43;3.73;;;8.80;26.30;;;;;;5058079;28;20152;-63
2022/03/13 09:28:16;;;;;;;8.77;4.10;;;8.80;26.10;;;;;;5060537;28;20165;-64
2022/03/13 09:30:42;;;;;;;5.60;3.80;;;8.70;26.00;;;;;;5058480;28;20512;-64
2022/03/13 09:33:07;;;;;;;6.23;3.50;;;8.80;25.70;;;;;;5057821;28;20175;-64
2022/03/13 09:35:33;;;;;;;3.70;3.07;;;8.80;25.70;;;;;;5058601;28;20160;-64
2022/03/13 09:37:58;;;;;;;6.40;3.87;;;9.00;25.70;;;;;;5056748;28;20616;-63
2022/03/13 09:40:27;;;;;;;7.83;3.70;;;9.20;25.40;;;;;;5073110;28;20176;-63
2022/03/13 09:42:54;;;;;;;6.10;3.20;;;9.30;25.30;;;;;;5057878;28;20176;-64
2022/03/13 09:45:21;;;;;;;8.00;3.80;;;9.20;24.90;;;;;;5056329;28;20474;-65
2022/03/13 09:47:47;;;;;;;8.77;3.63;;;9.60;25.10;;;;;;5056451;28;20160;-64
2022/03/13 09:50:13;;;;;;;6.17;3.50;;;9.70;24.70;;;;;;5056629;28;20567;-66
2022/03/13 09:52:40;;;;;;;4.80;3.50;;;9.50;24.30;;;;;;5071325;28;20182;-65
2022/03/13 09:55:10;;;;;;;4.60;3.43;;;9.40;24.30;;;;;;5056350;28;20161;-63
2022/03/13 09:57:39;;;;;;;4.67;3.57;;;9.50;24.20;;;;;;5071836;28;20219;-63
2022/03/13 10:00:09;;;;;;;4.00;2.90;;;9.60;24.20;;;;;;5056471;28;20587;-64
2022/03/13 10:02:37;;;;;;;6.43;3.33;;;9.60;24.10;;;;;;5072484;28;20511;-64
2022/03/13 10:05:12;;;;;;;4.53;2.90;;;9.80;24.10;;;;;;5059479;28;20164;-64
2022/03/13 10:08:00;;;;;;;4.33;3.23;;;9.90;23.90;;;;;;5056152;28;20168;-64
2022/03/13 10:10:29;;;;;;;5.13;3.20;;;9.90;23.70;;;;;;5055851;28;20599;-64
2022/03/13 10:12:55;;;;;;;5.90;3.40;;;9.90;23.60;;;;;;5055893;28;20156;-65
2022/03/13 10:15:21;;;;;;;5.23;3.40;;;9.90;23.50;;;;;;5055577;28;20546;-66
2022/03/13 10:17:48;;;;;;;7.63;3.97;;;10.00;22.90;;;;;;5055662;28;20207;-64
2022/03/13 10:20:21;;;;;;;3.87;2.93;;;10.10;22.90;;;;;;5055566;28;20180;-64
2022/03/13 10:22:49;;;;;;;6.47;3.33;;;10.10;22.80;;;;;;5055552;28;20259;-63
2022/03/13 10:25:28;;;;;;;8.37;3.67;;;10.20;22.70;;;;;;5055315;28;20179;-63
2022/03/13 10:27:55;;;;;;;4.37;3.13;;;10.40;22.80;;;;;;5055263;28;20168;-64
2022/03/13 10:30:21;;;;;;;4.97;3.20;;;10.50;22.70;;;;;;5088576;28;20297;-64
2022/03/13 10:32:57;;;;;;;6.17;3.60;;;10.40;22.40;;;;;;5056164;28;20312;-64
2022/03/13 10:35:22;;;;;;;5.13;3.50;;;10.50;22.70;;;;;;5056306;28;20484;-65
2022/03/13 10:37:48;;;;;;;5.07;3.20;;;10.50;22.80;;;;;;5054569;28;20239;-64
2022/03/13 10:40:22;;;;;;;6.87;3.40;;;10.50;22.70;;;;;;5054691;28;20169;-63
2022/03/13 10:42:50;;;;;;;5.37;3.23;;;10.60;22.70;;;;;;5054696;28;20160;-64
2022/03/13 10:45:43;;;;;;;6.20;3.53;;;10.80;22.80;;;;;;5055068;28;20153;-63
2022/03/13 10:48:30;;;;;;;5.60;3.67;;;10.80;22.80;;;;;;5055087;28;20198;-63
2022/03/13 10:51:00;;;;;;;4.50;3.30;;;10.70;22.80;;;;;;5054939;28;20167;-64
2022/03/13 10:53:27;;;;;;;7.33;3.47;;;10.60;22.80;;;;;;5055017;28;20195;-64
2022/03/13 10:56:12;;;;;;;4.30;3.47;;;10.80;22.90;;;;;;5054646;28;20692;-63
2022/03/13 10:58:40;;;;;;;5.80;3.53;;;10.90;23.00;;;;;;5054985;28;20176;-65
2022/03/13 11:01:12;;;;;;;5.97;3.53;;;10.90;22.90;;;;;;5054945;28;20187;-65
2022/03/13 11:03:57;;;;;;;4.83;3.67;;;10.90;22.60;;;;;;5055027;28;20168;-66
2022/03/13 11:06:25;;;;;;;4.87;3.20;;;10.80;22.20;;;;;;5070261;28;20183;-64
2022/03/13 11:08:54;;;;;;;5.60;3.80;;;10.80;22.30;;;;;;5054806;28;20160;-64
2022/03/13 11:11:21;;;;;;;7.60;4.10;;;10.90;22.60;;;;;;5054770;28;20251;-64
2022/03/13 11:13:52;;;;;;;4.33;2.97;;;11.00;22.50;;;;;;5055132;28;20173;-64
2022/03/13 11:16:26;;;;;;;4.47;3.20;;;11.10;22.30;;;;;;5069729;28;20233;-64
2022/03/13 11:18:55;;;;;;;4.87;3.17;;;11.00;22.20;;;;;;5054208;28;20251;-64
2022/03/13 11:21:22;;;;;;;6.87;3.37;;;11.00;22.30;;;;;;5054538;28;20247;-64
2022/03/13 11:23:49;;;;;;;5.30;3.70;;;11.00;22.30;;;;;;5054665;28;20171;-63
2022/03/13 11:26:18;;;;;;;5.07;3.60;;;11.10;22.40;;;;;;5054829;28;20182;-63
2022/03/13 11:28:45;;;;;;;5.67;3.63;;;11.20;22.50;;;;;;5054503;28;20187;-64
2022/03/13 11:31:29;;;;;;;6.10;3.30;;;11.30;22.70;;;;;;5071579;28;20195;-65
2022/03/13 11:34:16;;;;;;;6.73;3.40;;;11.50;22.90;;;;;;5074877;28;20167;-64
2022/03/13 11:36:47;;;;;;;5.63;3.67;;;11.20;22.70;;;;;;5074200;28;20253;-64
2022/03/13 11:39:30;;;;;;;4.43;3.30;;;11.30;22.80;;;;;;5073902;28;20167;-65
2022/03/13 11:41:57;;;;;;;5.47;3.67;;;11.20;22.80;;;;;;5073901;28;20163;-63
2022/03/13 11:44:28;;;;;;;6.10;3.43;;;11.30;23.10;;;;;;5074737;28;20270;-64
2022/03/13 11:46:55;;;;;;;6.97;3.73;;;11.20;23.10;;;;;;5074464;28;20193;-65
2022/03/13 11:49:30;;;;;;;6.50;4.27;;;11.30;22.90;;;;;;5073959;28;20185;-66
2022/03/13 11:52:13;;;;;;;8.47;3.40;;;11.60;22.80;;;;;;5073866;28;20181;-64
2022/03/13 11:54:52;;;;;;;5.03;3.43;;;11.60;22.90;;;;;;5074653;28;20166;-64
2022/03/13 11:57:20;;;;;;;6.20;3.47;;;11.50;22.70;;;;;;5073519;28;20652;-64
2022/03/13 11:59:49;;;;;;;4.70;3.37;;;11.50;22.90;;;;;;5073800;28;20545;-63
2022/03/13 12:02:42;;;;;;;5.53;3.87;;;11.60;23.00;;;;;;5067750;28;20176;-64
2022/03/13 12:05:26;;;;;;;5.33;3.70;;;11.70;22.80;;;;;;5053651;28;20163;-63
2022/03/13 12:07:52;;;;;;;4.03;3.27;;;11.80;23.10;;;;;;5053435;28;20500;-64
2022/03/13 12:10:30;;;;;;;6.50;3.90;;;12.00;23.00;;;;;;5053485;28;20183;-64
2022/03/13 12:13:03;;;;;;;7.60;4.27;;;12.00;23.10;;;;;;5053963;28;20157;-64
2022/03/13 12:15:29;;;;;;;4.80;3.53;;;12.00;23.20;;;;;;5054343;28;20210;-64
2022/03/13 12:17:57;;;;;;;6.33;3.60;;;11.90;23.20;;;;;;5056596;28;20686;-64
2022/03/13 12:20:26;;;;;;;6.10;3.57;;;12.00;23.20;;;;;;5055031;28;20529;-65
2022/03/13 12:22:53;;;;;;;6.27;3.80;;;11.90;23.10;;;;;;5057298;28;20194;-64
2022/03/13 12:25:26;;;;;;;8.00;3.80;;;11.90;23.80;;;;;;5057007;28;20545;-65
2022/03/13 12:27:56;;;;;;;6.23;3.80;;;12.10;23.60;;;;;;5058293;28;20172;-64
2022/03/13 12:30:27;;;;;;;6.33;3.80;;;11.90;23.80;;;;;;5058346;28;20164;-65
2022/03/13 12:33:06;;;;;;;6.40;3.90;;;11.80;24.00;;;;;;5056083;28;20183;-65
2022/03/13 12:35:32;;;;;;;5.13;3.50;;;12.10;24.40;;;;;;5056222;28;20163;-63
2022/03/13 12:38:01;;;;;;;4.97;3.73;;;12.10;24.30;;;;;;5055101;28;20322;-63
2022/03/13 12:40:29;;;;;;;6.03;3.80;;;12.30;24.50;;;;;;5076791;28;20159;-64
2022/03/13 12:42:56;;;;;;;4.67;3.67;;;12.20;24.20;;;;;;5075682;28;20286;-64
2022/03/13 12:45:23;;;;;;;4.63;3.90;;;12.20;24.00;;;;;;5077187;28;20164;-64
2022/03/13 12:47:55;;;;;;;6.27;3.40;;;12.40;24.20;;;;;;5074347;28;20243;-65
2022/03/13 12:50:26;;;;;;;5.23;3.33;;;12.50;24.30;;;;;;5074186;28;20580;-64
2022/03/13 12:52:57;;;;;;;5.73;3.67;;;12.50;24.20;;;;;;5075693;28;20168;-64
2022/03/13 12:55:25;;;;;;;6.50;3.63;;;12.40;24.10;;;;;;5076966;28;20167;-65
2022/03/13 12:57:53;;;;;;;4.50;3.33;;;12.40;24.00;;;;;;5077567;28;20256;-66